Time;durP1;ratioP1;P1;durP2;ratioP2;P2;SDS_P1;SDS_P2;PMS_P1;PMS_P2;Temp;Humidity;BMP_temperature;BMP_pressure;BME280_temperature;BME280_humidity;BME280_pressure;Samples;Min_cycle;Max_cycle;Signal;HPM_P1;HPM_P2
2021/12/07 00:01:28;;;;;;;6.53;4.28;;;0.70;99.90;;;;;;5033083;28;20204;-67
2021/12/07 00:03:56;;;;;;;5.88;3.83;;;0.70;99.90;;;;;;5033251;28;20221;-67
2021/12/07 00:06:23;;;;;;;4.53;3.38;;;0.70;99.90;;;;;;5127762;22;20235;-72
2021/12/07 00:08:54;;;;;;;5.75;3.63;;;0.70;99.90;;;;;;5072019;28;20199;-72
2021/12/07 00:11:22;;;;;;;5.43;3.85;;;0.70;99.90;;;;;;5054115;28;20208;-73
2021/12/07 00:13:49;;;;;;;4.22;3.60;;;0.80;99.90;;;;;;5052867;28;20221;-73
2021/12/07 00:16:18;;;;;;;4.03;3.15;;;0.80;99.90;;;;;;5049472;28;20274;-73
2021/12/07 00:18:46;;;;;;;4.00;3.60;;;0.90;99.90;;;;;;5068012;28;20242;-72
2021/12/07 00:21:16;;;;;;;4.28;3.65;;;0.90;99.90;;;;;;5072253;28;20216;-73
2021/12/07 00:23:43;;;;;;;3.58;2.95;;;0.90;99.90;;;;;;5072009;28;20221;-72
2021/12/07 00:26:10;;;;;;;3.72;3.22;;;0.90;99.90;;;;;;5060213;28;20722;-72
2021/12/07 00:28:38;;;;;;;4.50;3.60;;;1.00;99.90;;;;;;5052576;28;20225;-72
2021/12/07 00:31:12;;;;;;;3.85;3.45;;;1.00;99.90;;;;;;5051724;28;20216;-72
2021/12/07 00:33:46;;;;;;;4.45;3.35;;;1.10;99.90;;;;;;5052495;28;20225;-72
2021/12/07 00:36:13;;;;;;;3.83;3.30;;;1.10;99.90;;;;;;5052332;28;20204;-72
2021/12/07 00:38:40;;;;;;;4.22;3.70;;;1.10;99.90;;;;;;5052240;28;20205;-73
2021/12/07 00:41:07;;;;;;;5.63;3.65;;;1.10;99.90;;;;;;5051136;28;20546;-72
2021/12/07 00:43:34;;;;;;;4.55;3.85;;;1.10;99.90;;;;;;5052375;28;20217;-72
2021/12/07 00:46:03;;;;;;;4.53;3.40;;;1.00;99.90;;;;;;5064771;28;20227;-72
2021/12/07 00:48:30;;;;;;;4.18;3.78;;;1.00;99.90;;;;;;5071603;28;20251;-72
2021/12/07 00:50:58;;;;;;;5.38;3.60;;;1.10;99.90;;;;;;5071179;28;20196;-72
2021/12/07 00:53:27;;;;;;;4.00;3.60;;;1.10;99.90;;;;;;5072020;28;20247;-73
2021/12/07 00:55:57;;;;;;;4.13;3.50;;;1.00;99.90;;;;;;5072514;28;20573;-72
2021/12/07 00:58:25;;;;;;;4.30;3.60;;;1.00;99.90;;;;;;5072719;28;20249;-72
2021/12/07 01:00:54;;;;;;;4.45;3.55;;;1.00;99.90;;;;;;5072356;28;20608;-72
2021/12/07 01:03:23;;;;;;;5.32;3.50;;;1.00;99.90;;;;;;5072103;28;20711;-72
2021/12/07 01:05:53;;;;;;;5.45;4.40;;;0.90;99.90;;;;;;5072325;28;20220;-72
2021/12/07 01:08:49;;;;;;;6.80;4.35;;;0.90;99.90;;;;;;5068364;28;20224;-72
2021/12/07 01:24:56;;;;;;;5.38;4.30;;;0.70;99.90;;;;;;5070848;28;20268;-72
2021/12/07 01:27:24;;;;;;;6.35;4.60;;;0.70;99.90;;;;;;5071988;28;20227;-72
2021/12/07 01:30:02;;;;;;;4.82;4.32;;;0.70;99.90;;;;;;5071108;28;20207;-72
2021/12/07 01:32:42;;;;;;;6.40;4.25;;;0.70;99.90;;;;;;5071383;28;20230;-72
2021/12/07 01:35:35;;;;;;;5.50;4.28;;;0.70;99.90;;;;;;5071655;28;20200;-72
2021/12/07 01:38:21;;;;;;;4.43;3.90;;;0.70;99.90;;;;;;5071542;28;20235;-72
2021/12/07 01:41:02;;;;;;;7.50;5.13;;;0.70;99.90;;;;;;5071371;28;20232;-72
2021/12/07 01:43:55;;;;;;;4.97;4.22;;;0.70;99.90;;;;;;5071654;28;20227;-73
2021/12/07 01:52:11;;;;;;;6.53;4.47;;;0.80;99.90;;;;;;5070738;28;20195;-72
2021/12/07 02:00:09;;;;;;;5.78;4.18;;;0.80;99.90;;;;;;5071430;28;20204;-72
2021/12/07 02:02:36;;;;;;;4.97;4.47;;;0.80;99.90;;;;;;5070445;28;20200;-72
2021/12/07 02:05:05;;;;;;;5.03;4.53;;;0.90;99.90;;;;;;5070831;28;20225;-73
2021/12/07 02:07:33;;;;;;;5.10;4.43;;;0.90;99.90;;;;;;5070906;28;20266;-72
2021/12/07 02:10:06;;;;;;;5.50;4.18;;;0.90;99.90;;;;;;5070972;28;20204;-72
2021/12/07 02:12:42;;;;;;;4.50;4.05;;;1.00;99.90;;;;;;5070406;28;20204;-73
2021/12/07 02:15:10;;;;;;;5.60;4.60;;;0.90;99.90;;;;;;5071190;28;20204;-72
2021/12/07 02:17:38;;;;;;;6.07;4.15;;;0.90;99.90;;;;;;5071112;28;20204;-72
2021/12/07 02:20:07;;;;;;;4.72;3.80;;;1.00;99.90;;;;;;5070762;28;20639;-72
2021/12/07 02:22:35;;;;;;;4.90;3.90;;;1.00;99.90;;;;;;5070652;28;20558;-73
2021/12/07 02:25:02;;;;;;;5.38;3.70;;;1.00;99.90;;;;;;5071211;28;20216;-72
2021/12/07 02:27:29;;;;;;;4.97;4.05;;;1.00;99.90;;;;;;5071148;28;20713;-72
2021/12/07 02:29:56;;;;;;;5.13;4.30;;;1.00;99.90;;;;;;5070867;28;20688;-72
2021/12/07 02:32:22;;;;;;;5.38;3.75;;;1.00;99.90;;;;;;5070425;28;20208;-72
2021/12/07 02:34:57;;;;;;;5.00;4.10;;;1.00;99.90;;;;;;5070450;28;20566;-72
2021/12/07 02:37:24;;;;;;;4.47;3.38;;;1.10;99.90;;;;;;5070863;28;20204;-72
2021/12/07 02:39:53;;;;;;;4.85;3.88;;;1.10;99.90;;;;;;5070539;28;20196;-72
2021/12/07 02:42:20;;;;;;;6.35;4.57;;;1.20;99.90;;;;;;5069461;28;20203;-72
2021/12/07 02:44:46;;;;;;;3.58;3.10;;;1.20;99.90;;;;;;5070692;28;20216;-72
2021/12/07 02:47:13;;;;;;;3.80;3.40;;;1.20;99.90;;;;;;5070261;28;20204;-72
2021/12/07 02:49:40;;;;;;;4.03;3.60;;;1.20;99.90;;;;;;5070719;28;20200;-72
2021/12/07 02:52:08;;;;;;;3.17;2.75;;;1.20;99.90;;;;;;5069897;28;20212;-72
2021/12/07 02:54:36;;;;;;;4.68;3.95;;;1.20;99.90;;;;;;5070512;28;20220;-72
2021/12/07 02:57:06;;;;;;;3.20;2.95;;;1.20;99.90;;;;;;5070241;28;20209;-72
2021/12/07 02:59:34;;;;;;;4.55;3.40;;;1.20;99.90;;;;;;5070861;28;20207;-73
2021/12/07 03:02:04;;;;;;;3.92;3.00;;;1.20;99.90;;;;;;5069694;28;20279;-72
2021/12/07 03:04:36;;;;;;;3.20;2.90;;;1.30;99.90;;;;;;5070461;28;20224;-73
2021/12/07 03:07:10;;;;;;;3.28;2.97;;;1.30;99.90;;;;;;5070088;28;20320;-72
2021/12/07 03:25:49;;;;;;;3.65;3.08;;;1.40;99.90;;;;;;5070569;28;20285;-72
2021/12/07 03:26:31;;;;;;;2.42;2.15;;;1.40;99.90;;;;;;5069932;28;20250;-72
2021/12/07 03:29:00;;;;;;;3.15;2.10;;;1.40;99.90;;;;;;5070019;28;20707;-72
2021/12/07 03:31:29;;;;;;;4.28;2.50;;;1.40;99.90;;;;;;5069799;28;20303;-72
2021/12/07 03:33:58;;;;;;;3.22;2.15;;;1.40;99.90;;;;;;5070106;28;20273;-72
2021/12/07 03:36:25;;;;;;;2.35;2.05;;;1.40;99.90;;;;;;5070092;28;20207;-72
2021/12/07 03:38:52;;;;;;;2.80;2.30;;;1.40;99.90;;;;;;5070077;28;20208;-72
2021/12/07 03:41:20;;;;;;;2.35;2.15;;;1.40;99.90;;;;;;5069579;28;20215;-72
2021/12/07 03:43:47;;;;;;;1.92;1.73;;;1.50;99.90;;;;;;5070038;28;20231;-72
2021/12/07 03:46:16;;;;;;;4.10;2.67;;;1.50;99.90;;;;;;5070105;28;20257;-72
2021/12/07 03:48:43;;;;;;;2.60;1.98;;;1.50;99.90;;;;;;5069884;28;20227;-72
2021/12/07 03:51:11;;;;;;;2.25;2.05;;;1.50;99.90;;;;;;5069410;28;20204;-72
2021/12/07 03:53:38;;;;;;;2.67;2.22;;;1.50;99.90;;;;;;5072688;28;20223;-72
2021/12/07 03:56:06;;;;;;;2.13;1.90;;;1.50;99.90;;;;;;5073430;28;20196;-72
2021/12/07 03:58:33;;;;;;;4.68;2.03;;;1.50;99.90;;;;;;5073702;28;20213;-72
2021/12/07 04:01:00;;;;;;;2.20;2.00;;;1.50;99.90;;;;;;5072980;28;20207;-72
2021/12/07 04:03:33;;;;;;;2.28;2.08;;;1.60;99.90;;;;;;5073478;28;20637;-72
2021/12/07 04:06:04;;;;;;;2.13;1.92;;;1.60;99.90;;;;;;5073367;28;20285;-73
2021/12/07 04:08:31;;;;;;;5.20;2.08;;;1.60;99.90;;;;;;5073327;28;20224;-73
2021/12/07 04:10:58;;;;;;;2.75;1.98;;;1.60;99.90;;;;;;5072935;28;20611;-72
2021/12/07 04:13:26;;;;;;;3.30;2.10;;;1.60;99.90;;;;;;5073330;28;20220;-72
2021/12/07 04:15:52;;;;;;;1.90;1.70;;;1.70;99.90;;;;;;5073288;28;20211;-72
2021/12/07 04:18:19;;;;;;;2.15;1.70;;;1.70;99.90;;;;;;5073238;28;20200;-73
2021/12/07 04:20:47;;;;;;;2.13;1.98;;;1.60;99.90;;;;;;5073093;28;20197;-73
2021/12/07 04:23:14;;;;;;;2.65;1.95;;;1.60;99.90;;;;;;5072866;28;20223;-73
2021/12/07 04:25:41;;;;;;;2.97;2.25;;;1.60;99.90;;;;;;5073000;28;20205;-73
2021/12/07 04:28:08;;;;;;;3.67;1.90;;;1.60;99.90;;;;;;5072940;28;20259;-72
2021/12/07 04:30:38;;;;;;;3.40;1.80;;;1.50;99.90;;;;;;5073007;28;20200;-72
2021/12/07 04:33:08;;;;;;;3.15;2.17;;;1.60;99.90;;;;;;5072371;28;20322;-72
2021/12/07 04:35:37;;;;;;;2.17;1.80;;;1.60;99.90;;;;;;5072928;28;20204;-73
2021/12/07 04:38:05;;;;;;;3.38;1.92;;;1.60;99.90;;;;;;5072804;28;20566;-73
2021/12/07 04:40:34;;;;;;;2.25;1.77;;;1.60;99.90;;;;;;5072750;28;20747;-73
2021/12/07 04:43:01;;;;;;;1.95;1.80;;;1.60;99.90;;;;;;5072248;28;20601;-73
2021/12/07 04:45:36;;;;;;;2.67;1.85;;;1.60;99.90;;;;;;5072852;28;20204;-73
2021/12/07 04:48:28;;;;;;;1.98;1.60;;;1.60;99.90;;;;;;5072628;28;20220;-72
2021/12/07 04:59:14;;;;;;;2.47;1.80;;;1.70;99.90;;;;;;5072809;28;20192;-73
2021/12/07 05:01:41;;;;;;;5.45;1.48;;;1.70;99.90;;;;;;5071882;28;20873;-72
2021/12/07 05:04:12;;;;;;;1.73;1.42;;;1.70;99.90;;;;;;5049224;28;20221;-72
2021/12/07 05:06:45;;;;;;;5.28;1.70;;;1.70;99.90;;;;;;5051598;28;20219;-72
2021/12/07 05:09:31;;;;;;;2.35;1.45;;;1.70;99.90;;;;;;5049071;28;20307;-72
2021/12/07 05:12:20;;;;;;;2.17;1.40;;;1.80;99.90;;;;;;5051799;28;20255;-72
2021/12/07 05:14:46;;;;;;;2.17;1.60;;;1.80;99.90;;;;;;5067426;28;20219;-72
2021/12/07 05:17:24;;;;;;;2.35;1.48;;;1.80;99.90;;;;;;5057438;28;20203;-73
2021/12/07 05:26:00;;;;;;;2.10;1.70;;;1.80;99.90;;;;;;5060665;28;20239;-72
2021/12/07 05:39:19;;;;;;;1.80;1.58;;;1.90;99.90;;;;;;5062298;28;20235;-71
2021/12/07 05:41:47;;;;;;;4.88;1.83;;;1.90;99.90;;;;;;5058785;28;20204;-72
2021/12/07 05:44:14;;;;;;;2.47;1.50;;;2.00;99.90;;;;;;5061135;28;20216;-72
2021/12/07 05:46:41;;;;;;;2.28;1.30;;;1.90;99.90;;;;;;5060116;28;20222;-72
2021/12/07 05:49:08;;;;;;;3.45;1.60;;;1.90;99.90;;;;;;5061308;28;20606;-72
2021/12/07 05:51:34;;;;;;;3.33;1.48;;;1.90;99.90;;;;;;5058687;28;20554;-72
2021/12/07 05:54:01;;;;;;;3.03;1.42;;;1.80;99.90;;;;;;5053844;28;20221;-73
2021/12/07 05:56:28;;;;;;;2.10;1.90;;;1.70;99.90;;;;;;5057504;28;20216;-73
2021/12/07 05:58:56;;;;;;;6.78;1.70;;;1.60;99.90;;;;;;5057805;28;20586;-73
2021/12/07 06:01:22;;;;;;;6.10;1.65;;;1.50;99.90;;;;;;5059769;28;20426;-72
2021/12/07 06:03:49;;;;;;;2.25;1.80;;;1.50;99.90;;;;;;5060197;28;20501;-72
2021/12/07 06:24:14;;;;;;;3.70;2.25;;;1.40;99.90;;;;;;4938957;29;20738;-92
2021/12/07 06:30:00;;;;;;;4.15;1.80;;;1.50;99.90;;;;;;4984639;22;20275;-68
2021/12/07 06:32:27;;;;;;;4.13;1.70;;;1.50;99.90;;;;;;5070106;28;20204;-68
2021/12/07 06:34:54;;;;;;;3.88;1.80;;;1.50;99.90;;;;;;5088911;28;20223;-67
2021/12/07 06:37:20;;;;;;;2.50;1.58;;;1.50;99.90;;;;;;5090653;28;20208;-67
2021/12/07 06:39:47;;;;;;;2.38;1.80;;;1.50;99.90;;;;;;5089445;28;20199;-68
2021/12/07 06:42:14;;;;;;;1.88;1.65;;;1.50;99.90;;;;;;5090443;28;20207;-68
2021/12/07 06:44:41;;;;;;;3.00;1.85;;;1.60;99.90;;;;;;5091401;28;20220;-67
2021/12/07 06:47:09;;;;;;;3.63;1.95;;;1.60;99.90;;;;;;5091239;28;20796;-66
2021/12/07 06:49:37;;;;;;;4.18;1.80;;;1.70;99.90;;;;;;5072799;28;20559;-67
2021/12/07 06:52:04;;;;;;;2.97;1.70;;;1.60;99.90;;;;;;5070339;28;20208;-68
2021/12/07 06:54:31;;;;;;;2.20;1.80;;;1.60;99.90;;;;;;5071157;28;20217;-67
2021/12/07 06:56:58;;;;;;;4.00;2.50;;;1.60;99.90;;;;;;5070575;28;20695;-66
2021/12/07 06:59:25;;;;;;;3.92;1.48;;;1.70;99.90;;;;;;5070867;28;20197;-67
2021/12/07 07:01:52;;;;;;;3.63;2.15;;;1.70;99.90;;;;;;5069268;28;20204;-68
2021/12/07 07:04:20;;;;;;;7.43;2.30;;;1.70;99.90;;;;;;5070689;28;20235;-67
2021/12/07 07:06:48;;;;;;;2.47;1.73;;;1.70;99.90;;;;;;5070654;28;20203;-67
2021/12/07 07:09:15;;;;;;;2.58;2.35;;;1.70;99.90;;;;;;5070840;28;20220;-67
2021/12/07 07:11:41;;;;;;;2.40;1.80;;;1.70;99.90;;;;;;5070420;28;20208;-68
2021/12/07 07:14:08;;;;;;;2.28;1.73;;;1.70;99.90;;;;;;5070671;28;20227;-67
2021/12/07 07:16:35;;;;;;;4.22;2.38;;;1.80;99.90;;;;;;5070884;28;20257;-68
2021/12/07 07:19:02;;;;;;;2.30;1.67;;;1.80;99.90;;;;;;5070676;28;20205;-67
2021/12/07 07:21:31;;;;;;;2.95;2.10;;;1.90;99.90;;;;;;5070516;28;20200;-68
2021/12/07 07:23:57;;;;;;;2.65;2.05;;;1.90;99.90;;;;;;5069732;28;20615;-68
2021/12/07 07:26:24;;;;;;;3.35;2.00;;;1.90;99.90;;;;;;5070418;28;20208;-68
2021/12/07 07:28:51;;;;;;;2.97;1.70;;;2.00;99.90;;;;;;5073375;28;20216;-68
2021/12/07 07:31:17;;;;;;;3.33;1.98;;;2.00;99.90;;;;;;5073361;28;20695;-67
2021/12/07 07:33:44;;;;;;;3.50;1.80;;;1.90;99.90;;;;;;5074516;28;20224;-67
2021/12/07 07:36:11;;;;;;;3.85;1.83;;;2.00;99.90;;;;;;5073768;28;20204;-68
2021/12/07 07:38:39;;;;;;;4.28;2.55;;;2.00;99.90;;;;;;5074030;28;20573;-67
2021/12/07 07:41:06;;;;;;;5.28;2.00;;;2.10;99.90;;;;;;5072838;28;20200;-68
2021/12/07 07:43:33;;;;;;;3.10;2.00;;;2.10;99.90;;;;;;5074086;28;20230;-67
2021/12/07 07:46:00;;;;;;;4.30;2.20;;;2.10;99.90;;;;;;5073736;28;20205;-67
2021/12/07 07:48:27;;;;;;;3.42;1.65;;;2.10;99.90;;;;;;5073933;28;20664;-67
2021/12/07 07:50:53;;;;;;;4.00;1.65;;;2.10;99.90;;;;;;5073776;28;20809;-67
2021/12/07 07:53:22;;;;;;;2.08;1.55;;;2.10;99.90;;;;;;5073704;28;20231;-68
2021/12/07 07:55:50;;;;;;;1.92;1.73;;;2.10;99.90;;;;;;5074138;28;20216;-68
2021/12/07 07:58:17;;;;;;;3.78;1.77;;;2.10;99.90;;;;;;5073571;28;20208;-69
2021/12/07 08:00:44;;;;;;;4.07;2.00;;;2.20;99.90;;;;;;5073390;28;20204;-68
2021/12/07 08:03:12;;;;;;;4.20;1.70;;;2.20;99.90;;;;;;5072630;28;20221;-68
2021/12/07 08:05:39;;;;;;;3.28;1.88;;;2.30;99.90;;;;;;5073648;28;20582;-68
2021/12/07 08:08:06;;;;;;;3.92;2.08;;;2.30;99.90;;;;;;5073150;28;20205;-68
2021/12/07 08:10:33;;;;;;;3.47;2.08;;;2.40;99.90;;;;;;5073204;28;20224;-68
2021/12/07 08:13:04;;;;;;;5.82;1.90;;;2.40;99.90;;;;;;5072807;28;20210;-69
2021/12/07 08:15:36;;;;;;;4.22;1.95;;;2.40;99.90;;;;;;5073176;28;20204;-69
2021/12/07 08:18:03;;;;;;;5.03;2.70;;;2.50;99.90;;;;;;5072994;28;20200;-68
2021/12/07 08:20:30;;;;;;;3.60;1.60;;;2.50;99.90;;;;;;5072919;28;20203;-69
2021/12/07 08:22:58;;;;;;;3.75;2.42;;;2.60;99.90;;;;;;5072530;28;20207;-68
2021/12/07 08:25:25;;;;;;;5.88;1.92;;;2.60;99.90;;;;;;5073028;28;20265;-68
2021/12/07 08:27:51;;;;;;;4.65;1.90;;;2.70;99.90;;;;;;5073131;28;20204;-68
2021/12/07 08:30:20;;;;;;;4.95;2.20;;;2.80;99.90;;;;;;5072620;28;20621;-67
2021/12/07 08:32:46;;;;;;;5.78;2.13;;;2.90;99.90;;;;;;5072558;28;20223;-67
2021/12/07 08:35:15;;;;;;;4.38;2.38;;;3.00;99.90;;;;;;5072660;28;20664;-68
2021/12/07 08:37:44;;;;;;;2.83;1.90;;;3.00;99.90;;;;;;5072741;28;20671;-68
2021/12/07 08:40:12;;;;;;;2.83;1.80;;;3.20;99.90;;;;;;5071350;28;20200;-68
2021/12/07 08:42:39;;;;;;;3.20;1.73;;;3.70;99.90;;;;;;5072184;28;20650;-68
2021/12/07 08:45:07;;;;;;;4.93;2.17;;;3.90;99.90;;;;;;5072506;28;20715;-68
2021/12/07 08:47:36;;;;;;;8.70;2.70;;;4.00;99.90;;;;;;5072921;28;20573;-68
2021/12/07 08:50:08;;;;;;;4.80;2.13;;;4.30;99.90;;;;;;5072408;28;20232;-68
2021/12/07 08:52:36;;;;;;;3.70;1.95;;;4.60;99.90;;;;;;5072336;28;20580;-68
2021/12/07 09:00:35;;;;;;;4.57;1.85;;;5.10;99.90;;;;;;5090419;28;20225;-66
2021/12/07 09:03:04;;;;;;;6.38;2.03;;;5.10;99.90;;;;;;5081033;28;20208;-66
2021/12/07 09:05:31;;;;;;;3.40;2.22;;;5.00;99.90;;;;;;5071240;28;20207;-67
2021/12/07 09:07:59;;;;;;;6.10;2.20;;;5.00;99.90;;;;;;5070781;28;20204;-65
2021/12/07 09:10:27;;;;;;;4.88;1.90;;;5.00;99.90;;;;;;5070918;28;20216;-66
2021/12/07 09:12:54;;;;;;;2.83;1.75;;;5.10;99.90;;;;;;5070243;28;20204;-66
2021/12/07 09:15:21;;;;;;;5.25;1.85;;;5.60;99.90;;;;;;5070467;28;20566;-66
2021/12/07 09:17:48;;;;;;;2.38;1.60;;;6.00;99.90;;;;;;5072754;28;20252;-68
2021/12/07 09:20:16;;;;;;;2.58;1.88;;;6.70;99.90;;;;;;5071027;28;20231;-68
2021/12/07 09:22:45;;;;;;;4.68;2.08;;;8.80;99.90;;;;;;5069508;28;20208;-68
2021/12/07 09:25:11;;;;;;;2.80;1.67;;;11.10;99.90;;;;;;5070335;28;20224;-69
2021/12/07 09:27:38;;;;;;;2.25;1.65;;;13.00;99.90;;;;;;5070510;28;20204;-68
2021/12/07 09:30:07;;;;;;;3.67;1.75;;;14.20;99.90;;;;;;5069344;28;20231;-69
2021/12/07 09:32:34;;;;;;;4.13;1.95;;;15.70;97.50;;;;;;5069915;28;20687;-68
2021/12/07 09:35:03;;;;;;;3.13;1.83;;;17.20;96.30;;;;;;5069863;28;20230;-67
2021/12/07 09:37:31;;;;;;;1.73;1.40;;;17.60;94.90;;;;;;5069992;28;20201;-67
2021/12/07 09:39:58;;;;;;;6.27;1.90;;;18.50;93.60;;;;;;5069949;28;20982;-68
2021/12/07 09:42:25;;;;;;;4.83;2.10;;;17.80;93.30;;;;;;5069400;28;20466;-68
2021/12/07 09:44:51;;;;;;;3.63;1.73;;;16.00;93.90;;;;;;5069695;28;21012;-69
2021/12/07 09:47:18;;;;;;;3.72;1.90;;;14.10;95.50;;;;;;5072144;28;20465;-67
2021/12/07 09:49:45;;;;;;;2.97;1.73;;;13.70;96.60;;;;;;5091093;28;20258;-67
2021/12/07 09:52:12;;;;;;;4.78;2.30;;;13.90;96.80;;;;;;5089528;28;21089;-67
2021/12/07 09:54:40;;;;;;;12.63;2.70;;;13.50;96.70;;;;;;5091000;28;20226;-67
2021/12/07 09:57:07;;;;;;;4.05;1.60;;;13.00;96.50;;;;;;5090170;28;20466;-68
2021/12/07 09:59:33;;;;;;;2.08;1.58;;;11.70;97.60;;;;;;5091269;28;20200;-69
2021/12/07 10:02:03;;;;;;;2.83;1.65;;;10.90;97.90;;;;;;5090485;28;20207;-69
2021/12/07 10:04:30;;;;;;;3.60;2.08;;;11.00;99.10;;;;;;5090923;28;20224;-68
2021/12/07 10:06:57;;;;;;;3.88;1.92;;;11.40;98.30;;;;;;5090958;28;20203;-68
2021/12/07 10:09:23;;;;;;;3.30;2.00;;;11.10;99.10;;;;;;5090479;28;20204;-69
2021/12/07 10:11:52;;;;;;;4.20;1.70;;;10.90;99.40;;;;;;5090565;28;20200;-69
2021/12/07 10:14:19;;;;;;;3.38;1.50;;;10.60;98.20;;;;;;5089898;28;20722;-68
2021/12/07 10:16:48;;;;;;;3.58;1.70;;;9.70;98.90;;;;;;5091044;28;20200;-68
2021/12/07 10:19:28;;;;;;;4.78;1.83;;;9.70;99.90;;;;;;5090710;28;20210;-68
2021/12/07 10:22:01;;;;;;;3.75;1.65;;;10.90;99.90;;;;;;5090299;28;20719;-68
2021/12/07 10:24:37;;;;;;;5.18;1.75;;;12.90;97.10;;;;;;5090953;28;20271;-67
2021/12/07 10:27:05;;;;;;;2.55;1.70;;;14.50;95.60;;;;;;5064193;28;20208;-68
2021/12/07 10:29:34;;;;;;;3.05;1.80;;;16.10;95.30;;;;;;5070057;28;20221;-68
2021/12/07 10:32:05;;;;;;;3.73;2.10;;;17.50;93.50;;;;;;5069321;28;20208;-68
2021/12/07 10:34:36;;;;;;;3.20;2.00;;;18.50;92.30;;;;;;5075724;28;20478;-68
2021/12/07 10:37:07;;;;;;;2.80;1.60;;;18.80;91.00;;;;;;5090267;28;20462;-68
2021/12/07 10:39:38;;;;;;;1.70;1.50;;;17.00;90.30;;;;;;5090824;28;20458;-68
2021/12/07 10:42:09;;;;;;;4.50;1.80;;;15.30;91.30;;;;;;5089794;28;20469;-68
2021/12/07 10:44:38;;;;;;;3.30;1.60;;;14.10;92.40;;;;;;5090500;28;20488;-68
2021/12/07 10:47:06;;;;;;;5.23;1.60;;;14.40;92.30;;;;;;5090304;28;20461;-68
2021/12/07 10:49:37;;;;;;;4.73;1.90;;;15.00;92.00;;;;;;5090410;28;20971;-68
2021/12/07 10:52:13;;;;;;;2.83;1.50;;;16.10;90.60;;;;;;5082884;28;20449;-67
2021/12/07 10:54:44;;;;;;;3.00;2.00;;;17.10;89.80;;;;;;5090832;28;20503;-67
2021/12/07 10:57:15;;;;;;;2.90;1.47;;;17.60;88.50;;;;;;5073466;28;20457;-68
2021/12/07 10:59:53;;;;;;;3.40;1.87;;;17.70;89.10;;;;;;5069845;28;20447;-68
2021/12/07 11:02:20;;;;;;;5.10;1.67;;;18.30;89.40;;;;;;5066343;28;20450;-68
2021/12/07 11:04:49;;;;;;;3.67;1.50;;;18.50;87.20;;;;;;5069794;28;20474;-67
2021/12/07 11:07:19;;;;;;;2.80;1.50;;;17.70;87.50;;;;;;5068955;28;20459;-68
2021/12/07 11:09:57;;;;;;;4.13;2.27;;;16.90;88.70;;;;;;5070017;28;20491;-68
2021/12/07 11:12:28;;;;;;;3.67;1.50;;;16.00;90.80;;;;;;5068939;28;20473;-68
2021/12/07 11:14:59;;;;;;;3.20;1.73;;;14.80;90.60;;;;;;5069607;28;20497;-68
2021/12/07 11:17:29;;;;;;;3.78;1.50;;;13.00;91.60;;;;;;5069825;28;20549;-67
2021/12/07 11:19:56;;;;;;;2.55;1.50;;;11.20;93.50;;;;;;5069676;28;20276;-67
2021/12/07 11:22:30;;;;;;;2.83;1.90;;;10.30;94.90;;;;;;5069042;28;20212;-67
2021/12/07 11:25:00;;;;;;;4.80;1.95;;;10.20;95.80;;;;;;5069554;28;20224;-67
2021/12/07 11:30:18;;;;;;;8.63;1.92;;;12.20;94.90;;;;;;5068930;28;20219;-68
2021/12/07 11:32:48;;;;;;;4.18;2.30;;;12.30;94.70;;;;;;5069316;28;20200;-67
2021/12/07 11:35:20;;;;;;;3.72;1.90;;;12.30;94.40;;;;;;5069373;28;20227;-69
2021/12/07 11:37:47;;;;;;;3.42;1.58;;;12.50;94.40;;;;;;5069353;28;20211;-68
2021/12/07 11:40:18;;;;;;;2.88;2.55;;;12.10;94.00;;;;;;5069337;28;20197;-68
2021/12/07 11:42:46;;;;;;;3.42;1.77;;;10.90;95.20;;;;;;5068770;28;20211;-68
2021/12/07 11:45:17;;;;;;;2.15;1.80;;;9.90;96.80;;;;;;5069049;28;20200;-68
2021/12/07 11:47:46;;;;;;;3.35;1.65;;;9.20;97.70;;;;;;5069388;28;20204;-68
2021/12/07 11:50:29;;;;;;;4.95;1.80;;;8.60;98.30;;;;;;5069639;28;20404;-68
2021/12/07 11:52:59;;;;;;;1.88;1.33;;;8.30;98.90;;;;;;5069427;28;20405;-68
2021/12/07 11:55:26;;;;;;;3.38;1.63;;;7.70;99.00;;;;;;5069225;28;20319;-69
2021/12/07 11:57:54;;;;;;;2.63;1.20;;;7.00;99.60;;;;;;5070227;28;20671;-69
2021/12/07 12:00:23;;;;;;;2.30;1.45;;;6.70;99.90;;;;;;5069957;28;20204;-69
2021/12/07 12:02:50;;;;;;;2.85;1.40;;;7.20;99.90;;;;;;5078860;28;20196;-68
2021/12/07 12:05:18;;;;;;;7.60;2.90;;;8.30;99.50;;;;;;5089669;28;20294;-69
2021/12/07 12:07:47;;;;;;;4.10;1.88;;;9.30;98.80;;;;;;5232984;22;20715;-72
2021/12/07 12:10:17;;;;;;;7.10;2.25;;;10.20;97.50;;;;;;5068797;28;20235;-73
2021/12/07 12:13:02;;;;;;;2.25;1.50;;;10.90;95.70;;;;;;5068392;28;20532;-72
2021/12/07 12:15:42;;;;;;;8.05;1.80;;;10.80;95.30;;;;;;5033059;28;20197;-72
2021/12/07 12:18:18;;;;;;;4.03;1.50;;;10.40;96.40;;;;;;5031931;28;20699;-72
2021/12/07 12:20:58;;;;;;;4.30;2.05;;;10.20;96.70;;;;;;5033252;28;20201;-72
2021/12/07 12:23:34;;;;;;;2.88;1.58;;;10.00;96.50;;;;;;5032406;28;20419;-72
2021/12/07 12:26:04;;;;;;;3.85;1.48;;;9.70;97.10;;;;;;5032380;28;20209;-72
2021/12/07 12:28:38;;;;;;;2.55;1.58;;;10.00;96.90;;;;;;5032301;28;20205;-73
2021/12/07 12:31:06;;;;;;;4.05;1.80;;;10.20;97.20;;;;;;5032495;28;20226;-73
2021/12/07 12:33:49;;;;;;;3.28;1.70;;;10.20;96.30;;;;;;5032586;28;20228;-72
2021/12/07 12:36:16;;;;;;;7.60;1.92;;;9.80;97.70;;;;;;5039870;28;20291;-73
2021/12/07 12:38:48;;;;;;;5.00;1.80;;;9.40;97.60;;;;;;5050555;28;20208;-72
2021/12/07 12:41:16;;;;;;;4.97;1.60;;;8.70;98.10;;;;;;5051457;28;20211;-72
2021/12/07 12:43:47;;;;;;;4.97;1.88;;;8.20;98.60;;;;;;5052245;28;20229;-72
2021/12/07 12:46:22;;;;;;;2.50;1.20;;;7.70;98.90;;;;;;5051296;28;20497;-72
2021/12/07 12:48:51;;;;;;;4.82;1.55;;;7.30;99.00;;;;;;5052161;28;20208;-73
2021/12/07 12:51:19;;;;;;;1.35;1.17;;;7.30;98.50;;;;;;5050689;28;20700;-72
2021/12/07 12:53:47;;;;;;;4.22;1.30;;;7.30;98.70;;;;;;5051673;28;20224;-72
2021/12/07 12:56:16;;;;;;;2.30;1.50;;;7.30;99.20;;;;;;5051361;28;20244;-72
2021/12/07 12:58:47;;;;;;;4.40;1.55;;;7.20;99.10;;;;;;5051246;28;20208;-72
2021/12/07 13:01:17;;;;;;;2.88;1.38;;;7.10;98.20;;;;;;5060316;28;20201;-73
2021/12/07 13:03:52;;;;;;;5.10;1.70;;;6.90;99.00;;;;;;5050585;28;20228;-72
2021/12/07 13:06:21;;;;;;;2.30;1.45;;;6.60;98.50;;;;;;5051254;28;20215;-72
2021/12/07 13:08:55;;;;;;;2.20;1.60;;;6.30;99.30;;;;;;5051258;28;20216;-72
2021/12/07 13:11:34;;;;;;;4.18;1.90;;;6.10;99.90;;;;;;5051762;28;20224;-72
2021/12/07 13:14:03;;;;;;;2.03;1.38;;;5.90;99.90;;;;;;5050734;28;20216;-72
2021/12/07 13:19:04;;;;;;;2.78;1.83;;;5.60;99.90;;;;;;5055339;28;20209;-72
2021/12/07 13:21:36;;;;;;;4.22;1.65;;;5.60;99.90;;;;;;5050660;28;20189;-72
2021/12/07 13:24:07;;;;;;;3.25;2.00;;;5.50;99.90;;;;;;5050956;28;20604;-72
2021/12/07 13:26:35;;;;;;;3.63;1.45;;;5.50;99.90;;;;;;5049118;28;20201;-72
2021/12/07 13:29:10;;;;;;;4.03;1.77;;;5.50;99.90;;;;;;5050747;28;20201;-72
2021/12/07 13:31:41;;;;;;;2.55;1.73;;;5.50;99.90;;;;;;5050891;28;20224;-72
2021/12/07 13:34:11;;;;;;;3.75;1.85;;;5.40;99.90;;;;;;5049984;28;20224;-73
2021/12/07 13:36:46;;;;;;;6.60;1.60;;;5.50;99.90;;;;;;5051213;28;20563;-72
2021/12/07 13:39:40;;;;;;;4.88;2.03;;;5.50;99.90;;;;;;5050412;28;20264;-72
2021/12/07 13:42:11;;;;;;;4.05;1.65;;;5.50;99.90;;;;;;5049837;28;20197;-72
2021/12/07 13:44:41;;;;;;;3.67;1.60;;;5.40;99.90;;;;;;5050893;28;20312;-72
2021/12/07 13:47:11;;;;;;;3.05;1.75;;;5.40;99.90;;;;;;5049688;28;20224;-72
2021/12/07 13:49:40;;;;;;;3.67;1.67;;;5.20;99.90;;;;;;5050934;28;20208;-72
2021/12/07 13:52:14;;;;;;;3.67;1.40;;;5.10;99.90;;;;;;5049992;28;20565;-72
2021/12/07 13:54:44;;;;;;;4.03;1.48;;;5.00;99.90;;;;;;5050617;28;20228;-72
2021/12/07 13:57:14;;;;;;;3.45;1.30;;;5.10;99.90;;;;;;5049962;28;20583;-72
2021/12/07 13:59:42;;;;;;;5.28;2.45;;;5.20;99.90;;;;;;5051119;28;20613;-72
2021/12/07 14:02:09;;;;;;;5.68;2.10;;;5.10;99.90;;;;;;5050370;28;20197;-73
2021/12/07 14:04:36;;;;;;;3.10;1.30;;;5.10;99.90;;;;;;5051587;28;20217;-73
2021/12/07 14:07:04;;;;;;;3.40;1.50;;;5.20;99.90;;;;;;5051467;28;20292;-72
2021/12/07 14:09:31;;;;;;;3.78;1.60;;;5.10;99.90;;;;;;5050777;28;20201;-72
2021/12/07 14:12:00;;;;;;;3.95;1.50;;;5.00;99.90;;;;;;5049988;28;20714;-72
2021/12/07 14:14:28;;;;;;;1.60;1.23;;;5.00;99.90;;;;;;5050452;28;20225;-72
2021/12/07 14:16:58;;;;;;;1.95;1.40;;;4.80;99.90;;;;;;5050703;28;20244;-72
2021/12/07 14:19:25;;;;;;;1.60;1.25;;;4.80;99.90;;;;;;5046608;28;20536;-72
2021/12/07 14:21:53;;;;;;;2.95;1.33;;;4.70;99.90;;;;;;5046180;28;20656;-72
2021/12/07 14:24:20;;;;;;;4.35;1.67;;;4.70;99.90;;;;;;5067182;28;20224;-72
2021/12/07 14:26:50;;;;;;;8.00;1.38;;;4.60;99.90;;;;;;5070356;28;20599;-72
2021/12/07 14:29:20;;;;;;;5.72;1.52;;;4.60;99.90;;;;;;5070315;28;20250;-72
2021/12/07 14:31:51;;;;;;;2.47;1.52;;;4.50;99.90;;;;;;5070367;28;20227;-72
2021/12/07 14:34:23;;;;;;;3.63;1.73;;;4.40;99.90;;;;;;5069381;28;20303;-72
2021/12/07 14:36:53;;;;;;;2.80;1.30;;;4.40;99.90;;;;;;5070450;28;20568;-72
2021/12/07 14:39:22;;;;;;;2.67;1.60;;;4.30;99.90;;;;;;5068933;28;20565;-71
2021/12/07 14:41:50;;;;;;;3.17;1.35;;;4.30;99.90;;;;;;5070209;28;20675;-71
2021/12/07 14:44:19;;;;;;;4.38;1.40;;;4.30;99.90;;;;;;5069730;28;20246;-73